Akron Canton Regional Airport Akron US
ICAO: KCAK
IATA: CAK
Category: Medium
Scheduled Services: Yes

Elevation: 1228 ft
TransAlt. 18000 ft.

Airport Communications:
APP/DEP:32.3
APP/DEP:118.6
ATIS:121.05
CLNC DEL:132.05
GND:121.7
ARNG OPS:41.1
CLEVELAND RDO:114.4
TWR:118.3
UNICOM:122.95

KCAK Zoom In..

Runways:

(A) RW 01 length 7601 ft width 150 ft
ILS 109.50 / hdg 9

(B) RW 05 length 8204 ft width 150 ft
ILS 108.30 / hdg 54

(C) RW 19 length 7601 ft width 150 ft
ILS 109.50 / hdg 189

(D) RW 23 length 8204 ft width 150 ft
ILS 108.30 / hdg 234

Location; KCAK
Day. 15 / Time. 22.21 Zulu
* Altimeter: 29.98
* Temperature: 32° c. 89.6°f.
* Wind from: 290° Speed 07 kn.
Dewpoint: 20° c.
Visibility: 10 Statute Miles.
Clouds: Few 4500 ft.
Clouds: Scattered 9000 ft.
Conditions: Thunderstorm.Conditions: Thunderstorm.

KCAK 152221Z 29007KT 10SM TS FEW045CB SCT090 32/20 A2998 RMK AO2 TSB15 OCNL LTGICCG SW TS SW MOV E T03220200


Wind From 290°
Speed 07 kn.

 
 
jpsmedia.com for Web Design worldairports.se 2018   terms of use